Latest Weather Observations for Milingimbi

IDD60801

Issued at 11:01 am CST Thursday 28 May 2015 (issued every 30 minutes, with the page automatically refreshed every 10 minutes)

About weather observations | Map of weather stations | Latest weather observations for NT | Other Formats
Station Details ID: 014404 Name: MILINGIMBI AIRPORT Lat: -12.09 Lon: 134.89 Height: 15.0 m
Data from the previous 72 hours. | See also: Recent months at Milingimbi
Date/Time
CST
Temp
°C
App
Temp
°C
Dew
Point
Rel
Hum
%
Delta-T
°C
Wind Press
QNH
hPa
Press
MSL
hPa
Rain
since 9 am
mm
Dir
 
Spd
km/h
Gust
km/h
Spd
kts
Gust
kts
28/11:00am 28.4 28.8 21.7 67 4.5 ESE 22 30 12 16 1014.1 - 0.0
28/10:30am 28.3 29.0 21.6 67 4.5 SE 20 28 11 15 1014.4 - 0.0
28/10:00am 27.5 28.9 21.8 71 3.8 ESE 17 28 9 15 1014.6 - 0.0
28/09:30am 27.3 28.1 21.8 72 3.7 SE 20 32 11 17 1014.8 - 0.0
28/09:00am 25.6 26.4 21.3 77 2.8 SE 19 28 10 15 1014.6 1014.5 0.0
28/08:30am 24.6 26.6 21.5 83 2.1 SSE 13 19 7 10 1014.4 - 0.0
28/08:00am 23.5 26.2 21.4 88 1.4 SSE 9 13 5 7 1014.0 - 0.0
28/07:30am 22.8 25.3 21.1 90 1.1 SSE 9 15 5 8 1013.6 - 0.0
28/07:00am 22.9 25.1 21.2 90 1.1 SSE 11 17 6 9 1013.3 - 0.0
28/06:30am 23.0 24.5 21.3 90 1.1 SSE 15 19 8 10 1012.9 - 0.0
28/06:00am 23.0 25.2 21.1 89 1.2 SE 11 15 6 8 1012.7 1012.6 0.0
28/05:30am 23.4 25.7 21.3 88 1.4 SSE 11 15 6 8 1012.5 - 0.0
28/05:00am 23.9 25.3 21.8 88 1.4 SE 17 24 9 13 1012.2 - 0.0
28/04:30am 23.3 25.6 21.4 89 1.3 SE 11 17 6 9 1012.2 - 0.0
28/04:00am 23.4 25.4 21.5 89 1.3 SE 13 17 7 9 1012.2 - 0.0
28/03:30am 23.6 25.6 21.5 88 1.4 SSE 13 17 7 9 1012.1 - 0.0
28/03:00am 23.7 26.0 21.4 87 1.5 SE 11 17 6 9 1012.5 1012.4 0.0
28/02:30am 23.9 26.2 21.4 86 1.6 SSE 11 15 6 8 1012.5 - 0.0
28/02:00am 24.2 26.5 21.3 84 1.9 SSE 11 15 6 8 1012.9 - 0.0
28/01:30am 24.9 26.9 21.6 82 2.2 SE 13 20 7 11 1013.0 - 0.0
28/01:00am 25.3 27.2 22.0 82 2.2 SE 15 26 8 14 1013.3 - 0.0
28/12:30am 25.6 27.8 21.9 80 2.5 ESE 13 19 7 10 1013.4 - 0.0
28/12:00am 25.9 27.4 22.0 79 2.6 ESE 17 26 9 14 1013.5 1013.4 0.0
 
Date/Time
CST
Temp
°C
App
Temp
°C
Dew
Point
Rel
Hum
%
Delta-T
°C
Wind Press
QNH
hPa
Press
MSL
hPa
Rain
since 9 am
mm
Dir
 
Spd
km/h
Gust
km/h
Spd
kts
Gust
kts
27/11:30pm 26.1 27.6 22.0 78 2.7 ESE 17 20 9 11 1013.7 - 0.0
27/11:00pm 26.5 27.8 21.7 75 3.2 ESE 17 26 9 14 1013.7 - 0.0
27/10:30pm 27.0 28.3 21.7 73 3.5 ESE 17 26 9 14 1013.7 - 0.0
27/10:00pm 27.6 29.4 21.9 71 3.8 ESE 15 24 8 13 1013.7 - 0.0
27/09:30pm 27.6 29.9 21.4 69 4.1 E 11 17 6 9 1013.5 - 0.0
27/09:00pm 27.9 30.5 21.2 67 4.5 E 9 13 5 7 1013.3 1013.2 0.0
27/08:30pm 28.0 30.5 21.8 69 4.2 E 11 19 6 10 1013.1 - 0.0
27/08:00pm 28.0 30.8 21.5 67 4.3 E 9 13 5 7 1012.9 - 0.0
27/07:30pm 28.0 30.8 21.5 67 4.3 E 9 15 5 8 1012.6 - 0.0
27/07:00pm 28.0 30.5 21.8 69 4.2 E 11 15 6 8 1012.4 - 0.0
27/06:30pm 28.3 30.7 21.6 67 4.5 E 11 19 6 10 1012.0 - 0.0
27/06:00pm 28.6 30.8 21.9 67 4.5 E 13 20 7 11 1011.7 1011.6 0.0
27/05:30pm 29.0 31.7 22.2 66 4.6 E 11 17 6 9 1011.4 - 0.0
27/05:00pm 28.8 32.4 23.0 71 4.0 ENE 9 15 5 8 1011.1 - 0.0
27/04:30pm 28.6 31.7 22.8 71 3.9 ENE 11 17 6 9 1010.9 - 0.0
27/04:00pm 28.6 31.7 22.8 71 3.9 ENE 11 19 6 10 1011.0 - 0.0
27/03:30pm 28.3 31.5 23.0 73 3.6 NE 11 20 6 11 1011.0 - 0.0
27/03:00pm 28.7 31.7 23.4 73 3.6 NE 13 20 7 11 1011.2 1011.1 0.0
27/02:30pm 29.7 31.3 20.8 58 5.9 E 13 22 7 12 1011.4 - 0.0
27/02:00pm 30.8 32.0 20.7 55 6.7 E 15 24 8 13 1011.7 - 0.0
27/01:30pm 32.5 33.3 20.7 49 7.9 E 17 30 9 16 1012.2 - 0.0
27/01:00pm 31.6 31.0 20.5 51 7.4 SE 24 32 13 17 1012.8 - 0.0
27/12:30pm 31.5 31.4 20.8 53 7.1 ESE 22 32 12 17 1013.3 - 0.0
27/12:00pm 31.2 31.5 20.8 54 6.9 ESE 20 32 11 17 1013.9 1013.8 0.0
27/11:30am 30.9 31.4 21.1 56 6.6 ESE 20 28 11 15 1014.4 - 0.0
27/11:00am 29.9 29.5 20.2 56 6.4 SE 22 32 12 17 1014.8 - 0.0
27/10:30am 29.4 28.6 20.0 57 6.2 ESE 24 37 13 20 1014.9 - 0.0
27/10:00am 28.9 28.0 20.6 61 5.5 SE 26 32 14 17 1015.1 - 0.0
27/09:30am 27.7 27.9 20.5 65 4.7 SE 20 28 11 15 1014.9 - 0.0
27/09:00am 27.0 27.3 20.3 66 4.4 SE 19 26 10 14 1014.7 1014.6 0.0
27/08:30am 25.3 26.4 21.2 78 2.7 SE 17 22 9 12 1014.5 - 0.0
27/08:00am 24.3 25.8 21.2 83 2.0 SSE 15 20 8 11 1014.2 - 0.0
27/07:30am 23.7 26.0 21.4 87 1.5 SSE 11 19 6 10 1013.8 - 0.0
27/07:00am 22.8 24.7 21.4 92 0.9 SSE 13 17 7 9 1013.4 - 0.0
27/06:30am 22.8 25.1 21.4 92 0.9 SSE 11 15 6 8 1013.1 - 0.0
27/06:00am 22.8 25.1 21.4 92 0.9 S 11 17 6 9 1013.2 1013.1 0.0
27/05:30am 22.9 25.7 21.5 92 0.9 SSE 9 13 5 7 1013.4 - 0.0
27/05:00am 23.1 25.5 21.5 91 1.1 SSE 11 15 6 8 1013.1 - 0.0
27/04:30am 23.5 25.3 21.8 90 1.1 SE 15 19 8 10 1013.0 - 0.0
27/04:00am 23.5 25.7 21.8 90 1.1 SSE 13 17 7 9 1013.1 - 0.0
27/03:30am 23.6 26.0 21.5 88 1.4 SSE 11 15 6 8 1013.2 - 0.0
27/03:00am 23.6 26.3 21.3 87 1.5 SSE 9 15 5 8 1013.6 1013.5 0.0
27/02:30am 23.7 26.3 21.2 86 1.6 SSE 9 13 5 7 1014.1 - 0.0
27/02:00am 24.1 26.7 21.2 84 1.9 S 9 11 5 6 1014.3 - 0.0
27/01:30am 24.6 27.0 21.5 83 2.1 SSE 11 15 6 8 1014.7 - 0.0
27/01:00am 25.0 27.5 21.7 82 2.2 SE 11 15 6 8 1014.9 - 0.0
27/12:30am 25.2 27.2 21.5 80 2.5 SSE 13 17 7 9 1015.1 - 0.0
27/12:00am 26.1 27.0 22.0 78 2.7 ESE 20 30 11 16 1015.2 1015.1 0.0
 
Date/Time
CST
Temp
°C
App
Temp
°C
Dew
Point
Rel
Hum
%
Delta-T
°C
Wind Press
QNH
hPa
Press
MSL
hPa
Rain
since 9 am
mm
Dir
 
Spd
km/h
Gust
km/h
Spd
kts
Gust
kts
26/11:30pm 26.4 27.2 21.8 76 3.1 ESE 20 30 11 16 1015.5 - 0.0
26/11:00pm 26.4 28.6 21.8 76 3.1 ESE 13 20 7 11 1015.5 - 0.0
26/10:30pm 26.2 28.3 21.0 73 3.4 SE 11 17 6 9 1015.5 - 0.0
26/10:00pm 26.6 28.4 21.1 72 3.6 SE 13 17 7 9 1015.4 - 0.0
26/09:30pm 26.9 28.7 21.2 71 3.8 SE 13 19 7 10 1015.3 - 0.0
26/09:00pm 27.3 29.2 21.3 69 4.0 SE 13 19 7 10 1015.1 1015.0 0.0
26/08:30pm 27.6 29.2 21.4 69 4.1 SE 15 19 8 10 1014.8 - 0.0
26/08:00pm 28.1 29.7 21.4 67 4.5 SE 15 22 8 12 1014.5 - 0.0
26/07:30pm 28.7 29.8 21.2 64 5.0 SE 17 24 9 13 1013.9 - 0.0
26/07:00pm 29.4 30.0 21.4 62 5.4 SE 20 26 11 14 1013.3 - 0.0
26/06:30pm 29.3 30.4 22.0 64 4.9 ESE 19 24 10 13 1013.0 - 0.0
26/06:00pm 29.9 30.6 21.6 61 5.6 ESE 20 26 11 14 1012.8 1012.7 0.0
26/05:30pm 30.6 32.2 21.4 58 6.2 E 15 20 8 11 1012.6 - 0.0
26/05:00pm 31.0 33.2 21.8 58 6.2 E 13 20 7 11 1012.4 - 0.0
26/04:30pm 31.6 33.7 21.7 55 6.7 E 13 24 7 13 1012.3 - 0.0
26/04:00pm 31.7 32.4 21.2 53 7.1 E 19 26 10 14 1012.2 - 0.0
26/03:30pm 32.4 34.1 21.6 53 7.3 E 15 24 8 13 1012.3 - 0.0
26/03:00pm 32.3 34.0 22.4 56 6.8 E 17 28 9 15 1012.5 1012.4 0.0
26/02:30pm 30.9 32.9 22.2 59 5.9 E 15 26 8 14 1012.5 - 0.0
26/02:00pm 31.4 32.9 22.7 60 6.0 NE 19 26 10 14 1013.0 - 0.0
26/01:30pm 31.3 32.1 21.8 57 6.4 E 20 32 11 17 1013.5 - 0.0
26/01:00pm 31.6 32.7 22.0 56 6.5 ESE 19 26 10 14 1013.9 - 0.0
26/12:30pm 31.3 31.8 22.0 57 6.3 ESE 22 32 12 17 1014.5 - 0.0
26/12:00pm 31.3 32.0 22.3 58 6.1 ESE 22 30 12 16 1015.0 1014.9 0.0
26/11:30am 30.2 31.5 22.4 63 5.3 E 19 28 10 15 1015.4 - 0.0
26/11:00am 29.9 30.7 21.8 62 5.5 ESE 20 37 11 20 1015.8 - 0.0
26/10:30am 29.3 29.5 22.0 64 4.9 ESE 24 33 13 18 1016.2 - 0.0
26/10:00am 28.9 28.3 21.9 66 4.7 SE 28 35 15 19 1016.3 - 0.0
26/09:30am 28.6 28.2 21.6 66 4.7 ESE 26 33 14 18 1016.4 - 0.0
26/09:00am 27.7 29.4 22.4 73 3.6 SE 17 26 9 14 1016.3 1016.2 1.0
26/08:30am 25.5 26.3 21.4 78 2.7 SE 19 28 10 15 1016.2 - 1.0
26/08:00am 25.1 26.3 21.4 80 2.4 SE 17 24 9 13 1015.9 - 1.0
26/07:30am 23.9 25.8 21.4 86 1.6 SSE 13 19 7 10 1015.8 - 1.0
26/07:00am 23.7 25.6 21.4 87 1.5 SSE 13 17 7 9 1015.6 - 1.0
26/06:30am 23.7 25.5 21.2 86 1.6 SSE 13 19 7 10 1015.3 - 1.0
26/06:00am 23.8 25.6 21.1 85 1.8 SSE 13 17 7 9 1015.2 1015.1 1.0
26/05:30am 23.8 26.0 21.1 85 1.8 SSE 11 17 6 9 1015.0 - 1.0
26/05:00am 23.9 25.6 21.0 84 1.9 SSE 13 17 7 9 1015.0 - 1.0
26/04:30am 24.0 25.5 21.3 85 1.8 SSE 15 20 8 11 1014.7 - 1.0
26/04:00am 24.1 25.6 21.2 84 1.9 SSE 15 20 8 11 1014.6 - 1.0
26/03:30am 24.3 25.7 21.0 82 2.2 SE 15 20 8 11 1014.7 - 1.0
26/03:00am 24.7 26.1 21.0 80 2.4 SSE 15 19 8 10 1014.9 1014.8 1.0
26/02:30am 24.9 25.9 21.0 79 2.6 SSE 17 20 9 11 1014.9 - 1.0
26/02:00am 25.5 26.2 21.2 77 2.8 SE 19 26 10 14 1015.1 - 1.0
26/01:30am 25.5 27.1 21.4 78 2.7 SE 15 20 8 11 1015.5 - 1.0
26/01:00am 25.3 26.4 21.2 78 2.7 SE 17 20 9 11 1015.7 - 1.0
26/12:30am 25.7 26.9 21.4 77 2.9 SSE 17 24 9 13 1016.0 - 1.0
26/12:00am 25.6 27.3 21.7 79 2.6 SSE 15 20 8 11 1016.3 1016.2 1.0
 
Date/Time
CST
Temp
°C
App
Temp
°C
Dew
Point
Rel
Hum
%
Delta-T
°C
Wind Press
QNH
hPa
Press
MSL
hPa
Rain
since 9 am
mm
Dir
 
Spd
km/h
Gust
km/h
Spd
kts
Gust
kts
25/11:30pm 25.8 28.0 21.9 79 2.6 SSE 13 19 7 10 1016.6 - 1.0
25/11:00pm 25.9 27.7 21.8 78 2.7 SSE 15 22 8 12 1016.7 - 1.0
25/10:30pm 26.1 27.8 21.7 77 2.9 SSE 15 20 8 11 1016.9 - 1.0
25/10:00pm 26.2 27.9 21.6 76 3.1 SSE 15 20 8 11 1016.8 - 1.0
25/09:30pm 26.4 28.6 21.8 76 3.1 SSE 13 17 7 9 1016.6 - 1.0
25/09:00pm 26.7 29.1 22.3 77 3.0 SSE 13 20 7 11 1016.3 1016.2 1.0
25/08:30pm 26.8 29.3 22.4 77 3.0 SE 13 17 7 9 1016.0 - 1.0
25/08:00pm 27.2 28.8 22.8 77 3.0 SE 19 28 10 15 1015.4 - 1.0
25/07:30pm 27.0 30.1 23.5 81 2.4 SE 13 19 7 10 1015.1 - 1.0
25/07:00pm 26.6 31.3 23.9 85 1.9 SE 6 7 3 4 1014.6 - 1.0
25/06:30pm 26.6 30.2 23.1 81 2.4 S 9 13 5 7 1014.2 - 1.0
25/06:00pm 28.1 31.6 22.1 70 4.0 ENE 7 11 4 6 1014.1 1014.0 0.0
25/05:30pm 29.4 32.2 21.6 63 5.2 SE 9 11 5 6 1013.7 - 0.0
25/05:00pm 30.3 33.4 21.4 59 6.0 ESE 7 13 4 7 1013.4 - 0.0
25/04:30pm 30.3 33.0 21.4 59 6.0 E 9 13 5 7 1013.2 - 0.0
25/04:00pm 30.5 33.0 21.0 57 6.3 E 9 17 5 9 1013.2 - 0.0
25/03:30pm 30.8 32.9 21.0 56 6.6 E 11 17 6 9 1013.2 - 0.0
25/03:00pm 31.4 33.7 21.3 55 6.8 E 11 17 6 9 1013.2 1013.1 0.0
25/02:30pm 30.8 32.4 20.7 55 6.7 E 13 19 7 10 1013.4 - 0.0
25/02:00pm 30.8 32.2 21.0 56 6.6 E 15 20 8 11 1013.8 - 0.0
25/01:30pm 30.2 31.7 21.3 59 6.0 ESE 15 24 8 13 1014.2 - 0.0
25/01:00pm 30.0 30.9 20.8 57 6.1 ESE 17 24 9 13 1014.6 - 0.0
25/12:30pm 30.6 30.9 20.5 54 6.7 E 19 24 10 13 1014.9 - 0.0
25/12:00pm 30.3 30.3 20.2 54 6.7 SE 20 28 11 15 1015.2 1015.1 0.0
25/11:30am 29.7 29.8 21.1 60 5.7 SE 22 30 12 16 1015.7 - 0.0

Other Formats:

Comma delimited format used in spreadsheet applications
http://www.bom.gov.au/fwo/IDD60801/IDD60801.94140.axf

JavaScript Object Notation format (JSON) in row-major order
http://www.bom.gov.au/fwo/IDD60801/IDD60801.94140.json